sensor_id;sensor_type;location;lat;lon;timestamp;temperature;humidity
24456;DHT22;12628;50.860;5.714;2023-01-05T00:02:12;10.50;99.90
24456;DHT22;12628;50.860;5.714;2023-01-05T00:04:40;10.50;99.90
24456;DHT22;12628;50.860;5.714;2023-01-05T00:07:07;10.50;99.90
24456;DHT22;12628;50.860;5.714;2023-01-05T00:09:34;10.50;99.90
24456;DHT22;12628;50.860;5.714;2023-01-05T00:12:05;10.50;99.90
24456;DHT22;12628;50.860;5.714;2023-01-05T00:14:49;10.60;99.90
24456;DHT22;12628;50.860;5.714;2023-01-05T00:17:45;10.60;99.90
24456;DHT22;12628;50.860;5.714;2023-01-05T00:20:30;10.60;99.90
24456;DHT22;12628;50.860;5.714;2023-01-05T00:23:14;10.60;99.90
24456;DHT22;12628;50.860;5.714;2023-01-05T00:25:41;10.60;99.90
24456;DHT22;12628;50.860;5.714;2023-01-05T00:28:10;10.60;99.90
24456;DHT22;12628;50.860;5.714;2023-01-05T00:30:39;10.70;99.90
24456;DHT22;12628;50.860;5.714;2023-01-05T00:33:08;10.70;99.90
24456;DHT22;12628;50.860;5.714;2023-01-05T00:35:35;10.70;99.90
24456;DHT22;12628;50.860;5.714;2023-01-05T00:38:03;10.70;99.90
24456;DHT22;12628;50.860;5.714;2023-01-05T00:40:31;10.80;99.90
24456;DHT22;12628;50.860;5.714;2023-01-05T00:42:58;10.70;99.90
24456;DHT22;12628;50.860;5.714;2023-01-05T00:45:27;10.80;99.90
24456;DHT22;12628;50.860;5.714;2023-01-05T00:47:55;10.70;99.90
24456;DHT22;12628;50.860;5.714;2023-01-05T00:50:22;10.80;99.90
24456;DHT22;12628;50.860;5.714;2023-01-05T00:52:49;10.80;99.90
24456;DHT22;12628;50.860;5.714;2023-01-05T00:55:17;10.80;99.90
24456;DHT22;12628;50.860;5.714;2023-01-05T00:57:44;10.80;99.90
24456;DHT22;12628;50.860;5.714;2023-01-05T01:00:14;10.80;99.90
24456;DHT22;12628;50.860;5.714;2023-01-05T01:02:43;10.90;99.90
24456;DHT22;12628;50.860;5.714;2023-01-05T01:05:11;10.90;99.90
24456;DHT22;12628;50.860;5.714;2023-01-05T01:07:38;10.90;99.90
24456;DHT22;12628;50.860;5.714;2023-01-05T01:10:07;10.90;99.90
24456;DHT22;12628;50.860;5.714;2023-01-05T01:12:34;10.90;99.90
24456;DHT22;12628;50.860;5.714;2023-01-05T01:15:02;10.80;99.90
24456;DHT22;12628;50.860;5.714;2023-01-05T01:17:30;10.80;99.90
24456;DHT22;12628;50.860;5.714;2023-01-05T01:19:59;10.80;99.90
24456;DHT22;12628;50.860;5.714;2023-01-05T01:22:26;10.80;99.90
24456;DHT22;12628;50.860;5.714;2023-01-05T01:24:53;10.80;99.90
24456;DHT22;12628;50.860;5.714;2023-01-05T01:27:20;10.80;99.90
24456;DHT22;12628;50.860;5.714;2023-01-05T01:29:47;10.80;99.90
24456;DHT22;12628;50.860;5.714;2023-01-05T01:32:15;10.80;99.90
24456;DHT22;12628;50.860;5.714;2023-01-05T01:34:42;10.80;99.90
24456;DHT22;12628;50.860;5.714;2023-01-05T01:37:10;10.80;99.90
24456;DHT22;12628;50.860;5.714;2023-01-05T01:39:38;10.80;99.90
24456;DHT22;12628;50.860;5.714;2023-01-05T01:42:08;10.80;99.90
24456;DHT22;12628;50.860;5.714;2023-01-05T01:44:56;10.80;99.90
24456;DHT22;12628;50.860;5.714;2023-01-05T01:47:29;10.80;99.90
24456;DHT22;12628;50.860;5.714;2023-01-05T01:50:01;10.90;99.90
24456;DHT22;12628;50.860;5.714;2023-01-05T01:52:32;10.90;99.90
24456;DHT22;12628;50.860;5.714;2023-01-05T01:55:01;10.90;99.90
24456;DHT22;12628;50.860;5.714;2023-01-05T01:57:30;10.90;99.90
24456;DHT22;12628;50.860;5.714;2023-01-05T01:59:58;10.90;99.90
24456;DHT22;12628;50.860;5.714;2023-01-05T02:02:26;10.90;99.90
24456;DHT22;12628;50.860;5.714;2023-01-05T02:04:56;10.90;99.90
24456;DHT22;12628;50.860;5.714;2023-01-05T02:07:31;10.90;99.90
24456;DHT22;12628;50.860;5.714;2023-01-05T02:10:00;10.90;99.90
24456;DHT22;12628;50.860;5.714;2023-01-05T02:12:36;11.00;99.90
24456;DHT22;12628;50.860;5.714;2023-01-05T02:15:13;10.90;99.90
24456;DHT22;12628;50.860;5.714;2023-01-05T02:17:48;10.90;99.90
24456;DHT22;12628;50.860;5.714;2023-01-05T02:20:46;10.90;99.90
24456;DHT22;12628;50.860;5.714;2023-01-05T02:23:50;10.90;99.90
24456;DHT22;12628;50.860;5.714;2023-01-05T02:32:21;11.00;99.90
24456;DHT22;12628;50.860;5.714;2023-01-05T02:34:56;11.00;99.90
24456;DHT22;12628;50.860;5.714;2023-01-05T02:37:31;11.00;99.90
24456;DHT22;12628;50.860;5.714;2023-01-05T02:40:04;11.00;99.90
24456;DHT22;12628;50.860;5.714;2023-01-05T02:42:35;11.00;99.90
24456;DHT22;12628;50.860;5.714;2023-01-05T02:45:05;11.00;99.90
24456;DHT22;12628;50.860;5.714;2023-01-05T02:47:39;11.00;99.90
24456;DHT22;12628;50.860;5.714;2023-01-05T02:50:13;11.10;99.90
24456;DHT22;12628;50.860;5.714;2023-01-05T02:52:53;11.00;99.90
24456;DHT22;12628;50.860;5.714;2023-01-05T02:55:25;11.00;99.90
24456;DHT22;12628;50.860;5.714;2023-01-05T02:57:56;11.10;99.90
24456;DHT22;12628;50.860;5.714;2023-01-05T03:00:28;11.00;99.90
24456;DHT22;12628;50.860;5.714;2023-01-05T03:03:00;11.00;99.90
24456;DHT22;12628;50.860;5.714;2023-01-05T03:05:32;11.00;99.90
24456;DHT22;12628;50.860;5.714;2023-01-05T03:08:02;11.10;99.90
24456;DHT22;12628;50.860;5.714;2023-01-05T03:10:37;11.00;99.90
24456;DHT22;12628;50.860;5.714;2023-01-05T03:13:26;11.00;99.90
24456;DHT22;12628;50.860;5.714;2023-01-05T03:16:12;11.00;99.90
24456;DHT22;12628;50.860;5.714;2023-01-05T03:18:43;11.00;99.90
24456;DHT22;12628;50.860;5.714;2023-01-05T03:21:28;11.00;99.90
24456;DHT22;12628;50.860;5.714;2023-01-05T03:24:10;11.00;99.90
24456;DHT22;12628;50.860;5.714;2023-01-05T03:26:54;11.00;99.90
24456;DHT22;12628;50.860;5.714;2023-01-05T03:29:39;11.00;99.90
24456;DHT22;12628;50.860;5.714;2023-01-05T03:32:26;11.00;99.90
24456;DHT22;12628;50.860;5.714;2023-01-05T03:35:17;11.00;99.90
24456;DHT22;12628;50.860;5.714;2023-01-05T03:38:02;11.00;99.90
24456;DHT22;12628;50.860;5.714;2023-01-05T03:40:33;11.00;99.90
24456;DHT22;12628;50.860;5.714;2023-01-05T03:43:02;11.00;99.90
24456;DHT22;12628;50.860;5.714;2023-01-05T03:45:35;11.00;99.90
24456;DHT22;12628;50.860;5.714;2023-01-05T03:48:04;11.00;99.90
24456;DHT22;12628;50.860;5.714;2023-01-05T03:50:33;11.00;99.90
24456;DHT22;12628;50.860;5.714;2023-01-05T03:53:00;11.00;99.90
24456;DHT22;12628;50.860;5.714;2023-01-05T03:55:27;11.00;99.90
24456;DHT22;12628;50.860;5.714;2023-01-05T03:57:55;10.90;99.90
24456;DHT22;12628;50.860;5.714;2023-01-05T04:00:22;11.00;99.90
24456;DHT22;12628;50.860;5.714;2023-01-05T04:02:49;10.90;99.90
24456;DHT22;12628;50.860;5.714;2023-01-05T04:05:17;10.90;99.90
24456;DHT22;12628;50.860;5.714;2023-01-05T04:07:46;10.90;99.90
24456;DHT22;12628;50.860;5.714;2023-01-05T04:10:13;10.90;99.90
24456;DHT22;12628;50.860;5.714;2023-01-05T04:12:40;10.80;99.90
24456;DHT22;12628;50.860;5.714;2023-01-05T04:15:08;10.90;99.90
24456;DHT22;12628;50.860;5.714;2023-01-05T04:17:35;10.90;99.90
24456;DHT22;12628;50.860;5.714;2023-01-05T04:20:03;10.90;99.90
24456;DHT22;12628;50.860;5.714;2023-01-05T04:22:31;10.90;99.90
24456;DHT22;12628;50.860;5.714;2023-01-05T04:25:00;10.90;99.90
24456;DHT22;12628;50.860;5.714;2023-01-05T04:27:27;10.90;99.90
24456;DHT22;12628;50.860;5.714;2023-01-05T04:29:54;10.90;99.90
24456;DHT22;12628;50.860;5.714;2023-01-05T04:32:21;10.90;99.90
24456;DHT22;12628;50.860;5.714;2023-01-05T04:34:48;10.90;99.90
24456;DHT22;12628;50.860;5.714;2023-01-05T04:37:16;11.00;99.90
24456;DHT22;12628;50.860;5.714;2023-01-05T04:39:43;11.00;99.90
24456;DHT22;12628;50.860;5.714;2023-01-05T04:42:11;11.00;99.90
24456;DHT22;12628;50.860;5.714;2023-01-05T04:44:39;11.00;99.90
24456;DHT22;12628;50.860;5.714;2023-01-05T04:47:06;11.00;99.90
24456;DHT22;12628;50.860;5.714;2023-01-05T04:49:33;11.10;99.90
24456;DHT22;12628;50.860;5.714;2023-01-05T04:52:00;11.00;99.90
24456;DHT22;12628;50.860;5.714;2023-01-05T04:54:28;11.00;99.90
24456;DHT22;12628;50.860;5.714;2023-01-05T04:56:55;11.00;99.90
24456;DHT22;12628;50.860;5.714;2023-01-05T04:59:24;11.00;99.90
24456;DHT22;12628;50.860;5.714;2023-01-05T05:01:51;11.00;99.90
24456;DHT22;12628;50.860;5.714;2023-01-05T05:04:18;11.00;99.90
24456;DHT22;12628;50.860;5.714;2023-01-05T05:06:45;11.00;99.90
24456;DHT22;12628;50.860;5.714;2023-01-05T05:09:13;11.10;99.90
24456;DHT22;12628;50.860;5.714;2023-01-05T05:11:40;11.10;99.90
24456;DHT22;12628;50.860;5.714;2023-01-05T05:14:07;11.10;99.90
24456;DHT22;12628;50.860;5.714;2023-01-05T05:16:36;11.00;99.90
24456;DHT22;12628;50.860;5.714;2023-01-05T05:19:03;11.10;99.90
24456;DHT22;12628;50.860;5.714;2023-01-05T05:21:30;11.00;99.90
24456;DHT22;12628;50.860;5.714;2023-01-05T05:23:57;11.00;99.90
24456;DHT22;12628;50.860;5.714;2023-01-05T05:26:25;11.00;99.90
24456;DHT22;12628;50.860;5.714;2023-01-05T05:28:52;11.00;99.90
24456;DHT22;12628;50.860;5.714;2023-01-05T05:31:19;11.00;99.90
24456;DHT22;12628;50.860;5.714;2023-01-05T05:33:48;11.00;99.90
24456;DHT22;12628;50.860;5.714;2023-01-05T05:36:15;11.00;99.90
24456;DHT22;12628;50.860;5.714;2023-01-05T05:38:42;11.00;99.90
24456;DHT22;12628;50.860;5.714;2023-01-05T05:41:10;11.00;99.90
24456;DHT22;12628;50.860;5.714;2023-01-05T05:43:37;11.10;99.90
24456;DHT22;12628;50.860;5.714;2023-01-05T05:46:04;11.10;99.90
24456;DHT22;12628;50.860;5.714;2023-01-05T05:48:32;11.10;99.90
24456;DHT22;12628;50.860;5.714;2023-01-05T05:51:00;11.10;99.90
24456;DHT22;12628;50.860;5.714;2023-01-05T05:53:28;11.10;99.90
24456;DHT22;12628;50.860;5.714;2023-01-05T05:55:55;11.10;99.90
24456;DHT22;12628;50.860;5.714;2023-01-05T05:58:22;11.10;99.90
24456;DHT22;12628;50.860;5.714;2023-01-05T06:00:49;11.10;99.90
24456;DHT22;12628;50.860;5.714;2023-01-05T06:03:16;11.10;99.90
24456;DHT22;12628;50.860;5.714;2023-01-05T06:05:44;11.10;99.90
24456;DHT22;12628;50.860;5.714;2023-01-05T06:08:12;11.10;99.90
24456;DHT22;12628;50.860;5.714;2023-01-05T06:10:40;11.00;99.90
24456;DHT22;12628;50.860;5.714;2023-01-05T06:13:07;11.10;99.90
24456;DHT22;12628;50.860;5.714;2023-01-05T06:15:34;11.00;99.90
24456;DHT22;12628;50.860;5.714;2023-01-05T06:18:01;11.10;99.90
24456;DHT22;12628;50.860;5.714;2023-01-05T06:20:29;11.10;99.90
24456;DHT22;12628;50.860;5.714;2023-01-05T06:22:56;11.10;99.90
24456;DHT22;12628;50.860;5.714;2023-01-05T06:25:24;11.10;99.90
24456;DHT22;12628;50.860;5.714;2023-01-05T06:27:52;11.00;99.90
24456;DHT22;12628;50.860;5.714;2023-01-05T06:30:20;11.00;99.90
24456;DHT22;12628;50.860;5.714;2023-01-05T06:32:47;11.00;99.90
24456;DHT22;12628;50.860;5.714;2023-01-05T06:35:14;11.10;99.90
24456;DHT22;12628;50.860;5.714;2023-01-05T06:37:41;11.00;99.90
24456;DHT22;12628;50.860;5.714;2023-01-05T06:40:09;11.00;99.90
24456;DHT22;12628;50.860;5.714;2023-01-05T06:42:38;11.00;99.90
24456;DHT22;12628;50.860;5.714;2023-01-05T06:45:07;11.00;99.90
24456;DHT22;12628;50.860;5.714;2023-01-05T06:47:35;11.00;99.90
24456;DHT22;12628;50.860;5.714;2023-01-05T06:50:03;10.90;99.90
24456;DHT22;12628;50.860;5.714;2023-01-05T06:52:30;10.90;99.90
24456;DHT22;12628;50.860;5.714;2023-01-05T06:55:01;10.90;99.90
24456;DHT22;12628;50.860;5.714;2023-01-05T06:57:28;10.90;99.90
24456;DHT22;12628;50.860;5.714;2023-01-05T06:59:57;10.90;99.90
24456;DHT22;12628;50.860;5.714;2023-01-05T07:02:24;10.90;99.90
24456;DHT22;12628;50.860;5.714;2023-01-05T07:04:51;10.90;99.90
24456;DHT22;12628;50.860;5.714;2023-01-05T07:07:19;10.90;99.90
24456;DHT22;12628;50.860;5.714;2023-01-05T07:09:46;11.00;99.90
24456;DHT22;12628;50.860;5.714;2023-01-05T07:12:14;10.90;99.90
24456;DHT22;12628;50.860;5.714;2023-01-05T07:14:41;10.90;99.90
24456;DHT22;12628;50.860;5.714;2023-01-05T07:17:10;11.00;99.90
24456;DHT22;12628;50.860;5.714;2023-01-05T07:19:38;11.00;99.90
24456;DHT22;12628;50.860;5.714;2023-01-05T07:22:06;11.00;99.90
24456;DHT22;12628;50.860;5.714;2023-01-05T07:24:33;10.90;99.90
24456;DHT22;12628;50.860;5.714;2023-01-05T07:27:00;10.90;99.90
24456;DHT22;12628;50.860;5.714;2023-01-05T07:29:28;10.90;99.90
24456;DHT22;12628;50.860;5.714;2023-01-05T07:31:55;10.90;99.90
24456;DHT22;12628;50.860;5.714;2023-01-05T07:34:24;10.90;99.90
24456;DHT22;12628;50.860;5.714;2023-01-05T07:36:51;10.80;99.90
24456;DHT22;12628;50.860;5.714;2023-01-05T07:39:18;10.80;99.90
24456;DHT22;12628;50.860;5.714;2023-01-05T07:41:46;10.90;99.90
24456;DHT22;12628;50.860;5.714;2023-01-05T07:44:13;10.90;99.90
24456;DHT22;12628;50.860;5.714;2023-01-05T07:46:40;10.90;99.90
24456;DHT22;12628;50.860;5.714;2023-01-05T07:49:08;10.90;99.90
24456;DHT22;12628;50.860;5.714;2023-01-05T07:51:37;10.90;99.90
24456;DHT22;12628;50.860;5.714;2023-01-05T07:54:04;10.90;99.90
24456;DHT22;12628;50.860;5.714;2023-01-05T07:56:31;10.80;99.90
24456;DHT22;12628;50.860;5.714;2023-01-05T07:58:59;10.90;99.90
24456;DHT22;12628;50.860;5.714;2023-01-05T08:01:26;10.90;99.90
24456;DHT22;12628;50.860;5.714;2023-01-05T08:03:53;10.90;99.90
24456;DHT22;12628;50.860;5.714;2023-01-05T08:06:20;10.90;99.90
24456;DHT22;12628;50.860;5.714;2023-01-05T08:08:49;10.90;99.90
24456;DHT22;12628;50.860;5.714;2023-01-05T08:11:17;11.00;99.90
24456;DHT22;12628;50.860;5.714;2023-01-05T08:13:45;10.90;99.90
24456;DHT22;12628;50.860;5.714;2023-01-05T08:16:25;11.00;99.90
24456;DHT22;12628;50.860;5.714;2023-01-05T08:18:53;11.00;99.90
24456;DHT22;12628;50.860;5.714;2023-01-05T08:21:20;11.00;99.90
24456;DHT22;12628;50.860;5.714;2023-01-05T08:23:49;11.10;99.90
24456;DHT22;12628;50.860;5.714;2023-01-05T08:26:20;11.10;99.90
24456;DHT22;12628;50.860;5.714;2023-01-05T08:28:48;11.10;99.90
24456;DHT22;12628;50.860;5.714;2023-01-05T08:31:17;11.00;99.90
24456;DHT22;12628;50.860;5.714;2023-01-05T08:33:45;11.10;99.90
24456;DHT22;12628;50.860;5.714;2023-01-05T08:36:15;11.10;99.90
24456;DHT22;12628;50.860;5.714;2023-01-05T08:38:44;11.10;99.90
24456;DHT22;12628;50.860;5.714;2023-01-05T08:41:20;11.10;99.90
24456;DHT22;12628;50.860;5.714;2023-01-05T08:43:51;11.10;99.90
24456;DHT22;12628;50.860;5.714;2023-01-05T08:46:19;11.20;99.90
24456;DHT22;12628;50.860;5.714;2023-01-05T08:48:48;11.20;99.90
24456;DHT22;12628;50.860;5.714;2023-01-05T08:51:15;11.20;99.90
24456;DHT22;12628;50.860;5.714;2023-01-05T08:53:43;11.20;99.90
24456;DHT22;12628;50.860;5.714;2023-01-05T08:56:10;11.30;99.90
24456;DHT22;12628;50.860;5.714;2023-01-05T08:58:39;11.30;99.90
24456;DHT22;12628;50.860;5.714;2023-01-05T09:01:07;11.30;99.90
24456;DHT22;12628;50.860;5.714;2023-01-05T09:03:34;11.30;99.90
24456;DHT22;12628;50.860;5.714;2023-01-05T09:06:02;11.20;99.90
24456;DHT22;12628;50.860;5.714;2023-01-05T09:08:31;11.30;99.90
24456;DHT22;12628;50.860;5.714;2023-01-05T09:11:05;11.30;99.90
24456;DHT22;12628;50.860;5.714;2023-01-05T09:13:33;11.40;99.90
24456;DHT22;12628;50.860;5.714;2023-01-05T09:16:06;11.40;99.90
24456;DHT22;12628;50.860;5.714;2023-01-05T09:18:34;11.50;99.90
24456;DHT22;12628;50.860;5.714;2023-01-05T09:21:01;11.50;99.90
24456;DHT22;12628;50.860;5.714;2023-01-05T09:23:29;11.60;99.90
24456;DHT22;12628;50.860;5.714;2023-01-05T09:25:56;11.60;90.40
24456;DHT22;12628;50.860;5.714;2023-01-05T09:28:24;11.60;26.00
24456;DHT22;12628;50.860;5.714;2023-01-05T09:30:51;11.70;1.40
24456;DHT22;12628;50.860;5.714;2023-01-05T09:33:20;11.60;13.40
24456;DHT22;12628;50.860;5.714;2023-01-05T09:35:52;11.50;95.80
24456;DHT22;12628;50.860;5.714;2023-01-05T09:38:21;11.40;99.90
24456;DHT22;12628;50.860;5.714;2023-01-05T09:40:49;11.50;99.90
24456;DHT22;12628;50.860;5.714;2023-01-05T09:43:22;11.50;74.90
24456;DHT22;12628;50.860;5.714;2023-01-05T09:45:51;11.60;72.30
24456;DHT22;12628;50.860;5.714;2023-01-05T09:48:20;11.70;17.30
24456;DHT22;12628;50.860;5.714;2023-01-05T09:50:49;11.80;1.00
24456;DHT22;12628;50.860;5.714;2023-01-05T09:53:22;11.90;1.00
24456;DHT22;12628;50.860;5.714;2023-01-05T09:55:53;12.10;1.00
24456;DHT22;12628;50.860;5.714;2023-01-05T09:58:22;12.00;1.00
24456;DHT22;12628;50.860;5.714;2023-01-05T10:01:02;12.00;1.00
24456;DHT22;12628;50.860;5.714;2023-01-05T10:03:37;12.00;1.00
